AirNav   Pilot Hours Calculator
 
 1304 users online  

72NC Bethany South Heliport
Littleton, North Carolina, USA

GOING TO LITTLETON?


FAA INFORMATION EFFECTIVE 16 JUNE 2022

Location

FAA Identifier: 72NC
Lat/Long: 36-30-39.5000N 077-53-29.5000W
36-30.658333N 077-53.491667W
36.5109722,-77.8915278
(estimated)
Elevation: 220 ft. / 67 m (estimated)
From city: 5 miles N of LITTLETON, NC
Time zone: UTC -4 (UTC -5 during Standard Time)
Zip code: 27842

Heliport Operations

Heliport use: Private use. Permission required prior to landing
Activation date: 09/2003
Control tower: no
ARTCC: WASHINGTON CENTER
FSS: RALEIGH FLIGHT SERVICE STATION
Attendance: UNATNDD
Wind indicator: lighted
Segmented circle: no
Lights: ACTVT PERIMETER LIGHTS 123.025.

Heliport Communications

WX AWOS-3 at AVC (13 nm NW): 127.525 (434-729-2229)
WX AWOS-3 at LVL (16 nm N): 119.625 (434-848-2017)
WX AWOS-3PT at IXA (16 nm SE): 119.975 (252-583-3446)

Nearby radio navigation aids

VOR radial/distance  VOR name  Freq  Var
LVLr186/18.4LAWRENCEVILLE VORTAC112.9008W
TYIr349/33.3TAR RIVER VORTAC117.8005W

 
NDB name  Hdg/Dist  Freq  Var  ID
HUNTSBORO079/37.327109WHXO .... -..- ---
BLACKSTONE178/37.732609WBKT -... -.- -

Heliport Services

Runway Information

Helipad H1

Dimensions: 36 x 26 ft. / 11 x 8 m
Surface: wood
ROOFTOP HELIPAD.
Latitude: 36-30.658333N
Longitude: 077-53.491667W
Elevation: 220.0 ft.
Traffic pattern: leftleft

Heliport Ownership and Management from official FAA records

Ownership: Privately-owned
Owner: KATHLEEN & DALE SCHNEIDER
82 SUMMER PLACE
LITTLETON, NC 27850
Phone 252-586-5443
Manager: DALE SCHNEIDER
5836 FAYETTEVILLE RD, STE 204
DURHAM, NC 27713-6692
Phone 919-730-5000
CELL.

Additional Remarks

FOR CD CTC ATLANTA ARTCC AT 770-210-7692.

Instrument Procedures

There are no published instrument procedures at 72NC.

Some nearby airports with instrument procedures:

KAVC - Mecklenburg-Brunswick Regional Airport (13 nm NW)
KLVL - Brunswick County Airport (16 nm N)
KIXA - Halifax/Northampton Regional Airport (16 nm SE)
KEMV - Emporia-Greensville Regional Airport (22 nm NE)
W31 - Lunenburg County Airport (30 nm NW)
 
Loc | Ops | Rwys | IFR | FBO | Links
Com | Nav | Svcs | Stats | Notes
Area around 72NC (Bethany South Heliport)
 
Road maps at: MapQuest Bing Google
 
Aerial photo
No photo
 
Sectional chart

 
Airport distance calculator
Flying to Bethany South Heliport? Find the distance to fly.

From to 72NC

Sunrise and sunset
Times for 06-Jul-2022
 Local
(UTC-4)
 Zulu
(UTC)
Morning civil twilight05:3009:30
Sunrise06:0010:00
Sunset20:3200:32
Evening civil twilight21:0201:02

Current date and time
Zulu (UTC)  06-Jul-2022 23:01:50
Local (UTC-4)  06-Jul-2022 19:01:50
 
METAR
KAVC 
12nm NW 
062035Z AUTO 23008G14KT 10SM CLR 35/19 A2993 RMK AO2 T03540186
KLVL 
16nm N 
062035Z AUTO 24005KT CLR 36/20 A2988 RMK AO1 T03620197
KIXA 
16nm SE 
062035Z AUTO 28007KT 10SM CLR 36/25 A2987 RMK AO2
TAF
KRWI 
40nm S 
061732Z 0618/0718 25008KT P6SM SCT080 SCT250 FM062100 25008KT P6SM VCTS SCT050 SCT060CB TEMPO 0623/0703 25007KT 4SM -TSRA BKN025CB FM070300 26003KT P6SM VCSH SCT010 BKN250 FM070500 21004KT P6SM SCT008 BKN250 TEMPO 0709/0712 5SM BR BKN007 FM071300 26006KT P6SM SCT025 SCT050
NOTAMs
Click for the latest NOTAMs
NOTAMs are issued by the DoD/FAA and will open in a separate window not controlled by AirNav.

 

 
 

Would you like to see your business listed on this page?

 If your business provides an interesting product or service to pilots, flight crews, aircraft, or users of the Bethany South Heliport, you should consider listing it here.  To start the listing process, click on the button below
 
Add a business
 

Other Pages about Bethany South Heliport

Update a link
 
Copyright © AirNav, LLC. All rights reserved. Privacy Policy  Contact